Time;durP1;ratioP1;P1;durP2;ratioP2;P2;SDS_P1;SDS_P2;PMS_P1;PMS_P2;Temp;Humidity;BMP_temperature;BMP_pressure;BME280_temperature;BME280_humidity;BME280_pressure;Samples;Min_cycle;Max_cycle;Signal;HPM_P1;HPM_P2
2022/03/08 00:00:33;;;;;;;11.25;9.20;;;;;;;0.48;64.05;102352.31;5112205;28;20397;-79
2022/03/08 00:02:58;;;;;;;12.15;10.30;;;;;;;0.43;64.61;102342.16;5096270;28;20046;-79
2022/03/08 00:05:24;;;;;;;10.85;9.00;;;;;;;0.49;63.97;102348.88;5112328;28;20031;-80
2022/03/08 00:07:51;;;;;;;12.32;9.45;;;;;;;0.48;63.64;102348.03;5111639;27;20031;-80
2022/03/08 00:10:17;;;;;;;10.98;8.45;;;;;;;0.51;63.13;102342.88;5110788;28;20467;-79
2022/03/08 00:12:43;;;;;;;11.10;8.30;;;;;;;0.54;63.12;102339.44;5111971;27;20034;-81
2022/03/08 00:15:15;;;;;;;11.63;8.00;;;;;;;0.53;62.50;102346.25;5112579;28;20073;-81
2022/03/08 00:17:41;;;;;;;11.02;8.43;;;;;;;0.57;62.59;102343.63;5110168;28;20062;-79
2022/03/08 00:20:08;;;;;;;10.88;8.82;;;;;;;0.43;63.35;102334.50;5111702;28;20411;-79
2022/03/08 00:22:36;;;;;;;11.68;8.95;;;;;;;0.48;63.39;102342.94;5129392;27;20037;-79
2022/03/08 00:25:02;;;;;;;11.57;8.90;;;;;;;0.48;63.54;102336.97;5132289;27;20188;-79
2022/03/08 00:27:28;;;;;;;10.77;8.65;;;;;;;0.45;63.42;102337.00;5128976;27;20110;-79
2022/03/08 00:29:54;;;;;;;10.18;8.20;;;;;;;0.38;62.90;102325.22;5121193;27;20429;-80
2022/03/08 00:32:19;;;;;;;9.50;8.10;;;;;;;0.40;63.19;102334.56;5131874;27;20110;-80
2022/03/08 00:34:44;;;;;;;10.80;7.80;;;;;;;0.43;63.07;102334.50;5130161;27;20053;-79
2022/03/08 00:37:10;;;;;;;9.13;7.85;;;;;;;0.43;62.73;102339.59;5132238;27;20482;-80
2022/03/08 00:39:35;;;;;;;10.02;7.85;;;;;;;0.41;63.11;102331.13;5125412;27;20458;-80
2022/03/08 00:42:01;;;;;;;10.32;7.75;;;;;;;0.41;62.55;102336.25;5110044;28;20451;-80
2022/03/08 00:44:26;;;;;;;10.98;7.68;;;;;;;0.45;62.92;102342.97;5110320;28;20514;-80
2022/03/08 00:46:51;;;;;;;10.07;7.80;;;;;;;0.42;62.61;102331.97;5111066;28;20020;-79
2022/03/08 00:49:17;;;;;;;11.13;8.00;;;;;;;0.43;61.91;102333.66;5111109;28;20546;-79
2022/03/08 00:51:42;;;;;;;12.02;10.35;;;;;;;0.47;62.19;102331.03;5118535;27;20137;-79
2022/03/08 00:54:07;;;;;;;10.23;7.47;;;;;;;0.44;62.33;102336.19;5113746;27;20106;-80
2022/03/08 00:56:33;;;;;;;10.32;7.63;;;;;;;0.36;61.88;102320.16;5109715;28;20042;-80
2022/03/08 00:58:58;;;;;;;9.18;7.40;;;;;;;0.43;61.35;102331.94;5111198;28;20023;-80
2022/03/08 01:01:23;;;;;;;8.75;7.43;;;;;;;0.44;62.31;102331.06;5111170;28;20051;-80
2022/03/08 01:03:48;;;;;;;11.32;7.50;;;;;;;0.50;62.30;102330.97;5110679;28;20055;-80
2022/03/08 01:06:14;;;;;;;10.63;7.57;;;;;;;0.47;62.29;102331.03;5121462;27;20073;-80
2022/03/08 01:08:39;;;;;;;9.82;7.38;;;;;;;0.49;62.01;102334.41;5115021;27;20027;-81
2022/03/08 01:11:05;;;;;;;9.05;7.43;;;;;;;0.48;62.43;102327.63;5111020;28;20058;-80
2022/03/08 01:13:30;;;;;;;9.55;7.82;;;;;;;0.47;62.52;102322.53;5110683;28;20066;-80
2022/03/08 01:15:56;;;;;;;9.65;7.47;;;;;;;0.42;62.25;102317.50;5110860;28;20031;-80
2022/03/08 01:18:21;;;;;;;9.07;7.32;;;;;;;0.42;62.66;102322.59;5110377;27;20413;-80
2022/03/08 01:20:46;;;;;;;9.40;7.20;;;;;;;0.32;62.04;102308.28;5109618;28;20122;-80
2022/03/08 01:23:12;;;;;;;9.55;6.95;;;;;;;0.36;62.04;102312.50;5099776;27;20032;-80
2022/03/08 01:25:40;;;;;;;10.55;7.70;;;;;;;0.36;61.89;102306.53;5089970;28;20476;-80
2022/03/08 01:28:06;;;;;;;9.45;7.03;;;;;;;0.36;62.07;102304.84;5098816;28;20044;-80
2022/03/08 01:30:32;;;;;;;11.02;7.15;;;;;;;0.36;61.50;102297.19;5110339;28;20024;-80
2022/03/08 01:32:58;;;;;;;10.13;7.43;;;;;;;0.31;61.22;102301.50;5110326;27;20024;-80
2022/03/08 01:35:24;;;;;;;9.68;7.60;;;;;;;0.30;61.62;102297.28;5110548;28;20060;-80
2022/03/08 01:37:49;;;;;;;9.40;6.93;;;;;;;0.21;61.82;102277.00;5127060;27;20110;-79
2022/03/08 01:40:15;;;;;;;10.77;7.25;;;;;;;0.19;61.47;102288.94;5130786;27;20070;-80
2022/03/08 01:42:43;;;;;;;9.40;6.82;;;;;;;0.17;61.52;102275.34;5129305;27;20054;-80
2022/03/08 01:45:09;;;;;;;10.90;7.57;;;;;;;0.23;61.66;102293.09;5131321;27;20027;-80
2022/03/08 01:47:34;;;;;;;10.82;7.60;;;;;;;0.23;61.70;102285.44;5130176;27;20023;-80
2022/03/08 01:49:59;;;;;;;9.55;7.57;;;;;;;0.18;62.04;102269.41;5130593;27;20023;-80
2022/03/08 01:52:25;;;;;;;8.75;7.07;;;;;;;0.25;61.68;102292.22;5114959;27;20038;-80
2022/03/08 01:54:51;;;;;;;10.65;7.75;;;;;;;0.12;62.10;102272.03;5110007;28;20049;-80
2022/03/08 01:57:19;;;;;;;9.43;7.25;;;;;;;0.16;62.17;102271.09;5108572;28;20030;-80
2022/03/08 01:59:44;;;;;;;9.40;7.13;;;;;;;0.23;62.03;102280.34;5109936;28;20108;-80
2022/03/08 02:02:10;;;;;;;9.95;6.72;;;;;;;0.22;62.20;102264.19;5109682;28;20110;-80
2022/03/08 02:04:37;;;;;;;10.50;7.13;;;;;;;0.25;61.95;102263.31;5109779;28;20028;-80
2022/03/08 02:07:04;;;;;;;9.60;7.05;;;;;;;0.23;62.45;102265.91;5122074;27;20023;-80
2022/03/08 02:09:30;;;;;;;8.75;7.20;;;;;;;0.18;62.01;102256.66;5128883;27;20026;-80
2022/03/08 02:11:55;;;;;;;9.50;7.40;;;;;;;0.30;61.76;102269.22;5130589;27;20030;-79
2022/03/08 02:14:20;;;;;;;9.50;7.18;;;;;;;0.25;62.07;102253.13;5129949;27;20031;-80
2022/03/08 02:16:46;;;;;;;10.00;7.05;;;;;;;0.26;62.03;102259.91;5128002;27;20019;-80
2022/03/08 02:19:13;;;;;;;11.05;7.47;;;;;;;0.29;62.59;102269.22;5130265;27;20134;-81
2022/03/08 02:21:39;;;;;;;10.32;7.15;;;;;;;0.26;62.09;102257.34;5116472;27;20031;-80
2022/03/08 02:24:05;;;;;;;9.77;7.28;;;;;;;0.17;61.76;102254.94;5107946;28;20483;-80
2022/03/08 02:26:33;;;;;;;9.55;7.90;;;;;;;0.20;61.79;102242.16;5109359;28;20037;-80
2022/03/08 02:29:00;;;;;;;12.10;7.55;;;;;;;0.16;61.77;102230.28;5110221;27;20024;-80
2022/03/08 02:31:25;;;;;;;10.93;7.45;;;;;;;0.25;62.34;102237.81;5109039;28;20475;-80
2022/03/08 02:33:51;;;;;;;11.23;7.57;;;;;;;0.23;61.80;102229.31;5109257;28;20034;-80
2022/03/08 02:36:16;;;;;;;9.82;7.63;;;;;;;0.21;61.76;102236.16;5108884;28;20459;-79
2022/03/08 02:38:42;;;;;;;11.10;7.53;;;;;;;0.23;62.14;102226.78;5128396;27;20088;-79
2022/03/08 02:41:07;;;;;;;10.45;7.90;;;;;;;0.23;61.77;102226.78;5129652;27;20407;-80
2022/03/08 02:43:33;;;;;;;10.38;8.00;;;;;;;0.26;61.88;102229.28;5129387;27;20055;-80
2022/03/08 02:45:58;;;;;;;10.15;7.88;;;;;;;0.16;62.22;102214.97;5127201;27;20027;-80
2022/03/08 02:48:28;;;;;;;10.25;7.35;;;;;;;0.19;61.81;102230.25;5129639;27;20058;-80
2022/03/08 02:50:54;;;;;;;10.43;7.47;;;;;;;0.13;61.78;102212.50;5129124;27;20019;-80
2022/03/08 02:53:19;;;;;;;9.60;7.53;;;;;;;0.17;61.93;102229.41;5110425;27;20028;-79
2022/03/08 02:55:45;;;;;;;9.50;7.38;;;;;;;0.17;62.11;102225.19;5106976;28;20450;-79
2022/03/08 02:58:10;;;;;;;9.85;7.32;;;;;;;0.12;62.15;102226.13;5108862;28;20026;-79
2022/03/08 03:00:36;;;;;;;10.57;7.95;;;;;;;0.14;62.05;102232.03;5107843;28;20073;-79
2022/03/08 03:03:02;;;;;;;10.88;7.90;;;;;;;0.13;62.10;102220.16;5108489;28;20027;-79
2022/03/08 03:05:28;;;;;;;9.68;7.57;;;;;;;0.06;62.04;102211.75;5108855;28;20028;-80
2022/03/08 03:07:54;;;;;;;11.50;7.90;;;;;;;0.05;61.63;102210.06;5124117;27;20359;-79
2022/03/08 03:10:21;;;;;;;10.30;8.10;;;;;;;0.05;61.75;102209.22;5128969;27;20061;-80
2022/03/08 03:12:47;;;;;;;10.18;7.70;;;;;;;0.03;62.12;102210.94;5128794;27;20027;-79
2022/03/08 03:15:14;;;;;;;10.35;7.85;;;;;;;0.03;61.72;102216.06;5127283;27;20030;-79
2022/03/08 03:17:40;;;;;;;9.40;7.80;;;;;;;0.03;61.93;102208.41;5128870;27;20130;-80
2022/03/08 03:20:07;;;;;;;10.85;8.10;;;;;;;-0.06;62.07;102200.03;5107626;27;20436;-80
2022/03/08 03:22:33;;;;;;;10.07;7.55;;;;;;;-0.07;62.33;102198.31;5108269;28;20035;-80
2022/03/08 03:24:59;;;;;;;10.15;7.63;;;;;;;-0.02;62.29;102209.31;5107820;28;20054;-80
2022/03/08 03:27:24;;;;;;;11.70;8.32;;;;;;;-0.07;62.11;102185.56;5106618;28;20352;-80
2022/03/08 03:29:49;;;;;;;10.63;8.15;;;;;;;-0.15;62.00;102187.41;5104574;27;20015;-80
2022/03/08 03:32:15;;;;;;;10.63;7.95;;;;;;;-0.02;62.01;102201.66;5108439;27;20398;-80
2022/03/08 03:34:40;;;;;;;10.25;8.27;;;;;;;-0.08;62.38;102188.16;5115471;27;20358;-80
2022/03/08 03:37:06;;;;;;;11.00;8.43;;;;;;;-0.04;62.61;102194.91;5108604;28;20015;-80
2022/03/08 03:39:31;;;;;;;10.70;7.82;;;;;;;-0.08;63.61;102194.09;5121028;27;20030;-80
2022/03/08 03:41:57;;;;;;;9.80;8.13;;;;;;;-0.13;63.39;102180.56;5118562;27;20459;-80
2022/03/08 03:44:22;;;;;;;10.63;8.23;;;;;;;-0.17;62.72;102181.50;5107718;28;20055;-80
2022/03/08 03:46:48;;;;;;;10.60;8.18;;;;;;;-0.10;63.10;102185.66;5111794;28;20015;-80
2022/03/08 03:49:14;;;;;;;10.63;8.15;;;;;;;-0.12;62.77;102187.34;5127459;27;20042;-79
2022/03/08 03:51:40;;;;;;;10.25;8.00;;;;;;;-0.11;62.52;102180.56;5107498;27;20031;-80
2022/03/08 03:54:05;;;;;;;9.38;7.50;;;;;;;-0.11;62.96;102186.50;5108783;28;20054;-80
2022/03/08 03:56:30;;;;;;;10.15;8.48;;;;;;;-0.11;62.39;102189.06;5108102;28;20486;-80
2022/03/08 03:58:56;;;;;;;10.75;8.35;;;;;;;-0.12;62.79;102187.34;5107565;28;20023;-79
2022/03/08 04:01:21;;;;;;;10.90;8.38;;;;;;;-0.08;62.70;102196.66;5106986;28;20067;-80
2022/03/08 04:03:47;;;;;;;11.95;8.40;;;;;;;-0.09;62.62;102189.03;5108960;28;20552;-79
2022/03/08 04:06:12;;;;;;;10.38;7.97;;;;;;;-0.07;62.54;102200.88;5106817;28;20023;-79
2022/03/08 04:08:37;;;;;;;12.48;8.18;;;;;;;-0.09;62.49;102197.53;5125660;28;20065;-79
2022/03/08 04:11:03;;;;;;;10.05;8.60;;;;;;;-0.07;62.52;102200.03;5128586;27;20092;-79
2022/03/08 04:13:28;;;;;;;10.65;8.32;;;;;;;-0.15;62.45;102182.31;5128024;27;20110;-79
2022/03/08 04:15:54;;;;;;;10.38;8.00;;;;;;;-0.11;62.60;102173.75;5128684;27;20045;-79
2022/03/08 04:18:19;;;;;;;12.07;8.30;;;;;;;-0.11;62.49;102172.94;5126813;28;20031;-80
2022/03/08 04:20:45;;;;;;;9.93;8.30;;;;;;;-0.05;62.77;102194.06;5126709;28;20034;-79
2022/03/08 04:23:11;;;;;;;10.48;8.30;;;;;;;-0.11;62.43;102183.97;5128633;27;20050;-80
2022/03/08 04:25:37;;;;;;;11.05;8.32;;;;;;;-0.09;62.62;102177.13;5127956;27;20047;-80
2022/03/08 04:28:03;;;;;;;11.82;8.40;;;;;;;-0.09;63.04;102189.88;5127961;27;20031;-80
2022/03/08 04:30:29;;;;;;;10.30;8.35;;;;;;;-0.15;62.44;102179.78;5128425;27;20027;-79
2022/03/08 04:32:54;;;;;;;11.68;8.65;;;;;;;-0.12;63.07;102182.25;5128912;27;20023;-80
2022/03/08 04:35:20;;;;;;;10.40;8.23;;;;;;;-0.19;63.09;102175.56;5108715;27;20027;-80
2022/03/08 04:37:45;;;;;;;10.35;8.45;;;;;;;-0.14;62.89;102184.00;5109346;28;20066;-80
2022/03/08 04:40:12;;;;;;;10.18;8.45;;;;;;;-0.17;62.64;102173.00;5130118;27;20030;-80
2022/03/08 04:42:38;;;;;;;10.13;8.45;;;;;;;-0.18;63.00;102179.81;5112894;27;20026;-81
2022/03/08 04:45:04;;;;;;;11.35;8.45;;;;;;;-0.17;62.72;102181.50;5111382;28;20054;-79
2022/03/08 04:47:30;;;;;;;10.35;8.48;;;;;;;-0.16;62.66;102174.69;5095817;28;20028;-81
2022/03/08 04:49:55;;;;;;;11.02;8.60;;;;;;;-0.12;62.95;102177.16;5110079;27;20461;-79
2022/03/08 04:52:21;;;;;;;10.73;8.52;;;;;;;-0.16;62.43;102173.00;5097168;28;20450;-79
2022/03/08 04:54:46;;;;;;;10.70;8.00;;;;;;;-0.17;62.79;102171.31;5092969;28;20153;-80
2022/03/08 04:57:11;;;;;;;10.55;8.75;;;;;;;-0.28;62.48;102168.91;5101452;28;20142;-80
2022/03/08 04:59:36;;;;;;;12.57;8.77;;;;;;;-0.29;62.78;102168.91;5110926;28;20400;-79
2022/03/08 05:02:04;;;;;;;11.45;8.93;;;;;;;-0.23;63.53;102175.63;5106624;28;20478;-80
2022/03/08 05:04:30;;;;;;;10.83;8.60;;;;;;;-0.26;63.10;102179.09;5097532;27;20032;-80
2022/03/08 05:06:55;;;;;;;11.27;8.68;;;;;;;-0.24;63.15;102177.34;5097561;27;20530;-80
2022/03/08 05:09:20;;;;;;;12.30;8.95;;;;;;;-0.27;63.69;102187.59;5091702;28;20459;-80
2022/03/08 05:11:46;;;;;;;10.55;8.77;;;;;;;-0.32;63.41;102174.09;5095646;27;20044;-81
2022/03/08 05:14:11;;;;;;;10.30;8.73;;;;;;;-0.25;63.49;102175.66;5107560;28;20099;-80
2022/03/08 05:16:37;;;;;;;10.55;8.68;;;;;;;-0.28;63.35;102185.94;5108666;27;20036;-80
2022/03/08 05:19:02;;;;;;;12.05;8.73;;;;;;;-0.37;63.51;102175.84;5131384;27;20023;-80
2022/03/08 05:21:28;;;;;;;14.45;9.45;;;;;;;-0.39;63.88;102167.41;5129793;27;20031;-80
2022/03/08 05:23:53;;;;;;;11.82;9.23;;;;;;;-0.37;63.68;102165.66;5131410;27;20015;-81
2022/03/08 05:26:18;;;;;;;11.45;9.40;;;;;;;-0.34;63.59;102165.63;5131156;27;20027;-80
2022/03/08 05:28:44;;;;;;;10.63;9.52;;;;;;;-0.39;63.90;102162.28;5129293;27;20419;-80
2022/03/08 05:31:13;;;;;;;12.40;9.50;;;;;;;-0.35;63.62;102158.81;5111433;27;20475;-80
2022/03/08 05:33:39;;;;;;;12.35;9.05;;;;;;;-0.35;63.86;102158.81;5108297;27;20027;-79
2022/03/08 05:36:05;;;;;;;12.82;9.25;;;;;;;-0.35;63.40;102154.56;5107830;28;20045;-80
2022/03/08 05:38:31;;;;;;;12.50;10.40;;;;;;;-0.52;64.06;102140.38;5118976;27;20110;-80
2022/03/08 05:40:56;;;;;;;12.85;10.35;;;;;;;-0.52;64.01;102141.22;5115314;27;20402;-80
2022/03/08 05:43:21;;;;;;;11.73;10.13;;;;;;;-0.51;63.49;102137.00;5088776;28;20471;-79
2022/03/08 05:45:47;;;;;;;12.50;10.05;;;;;;;-0.49;63.70;102141.19;5088380;28;20487;-79
2022/03/08 05:48:15;;;;;;;11.90;9.95;;;;;;;-0.43;63.93;102155.56;5107106;27;20085;-80
2022/03/08 05:50:41;;;;;;;12.23;10.43;;;;;;;-0.45;64.11;102153.03;5090425;28;20020;-80
2022/03/08 05:53:06;;;;;;;12.27;9.90;;;;;;;-0.50;63.94;102142.06;5089870;28;20081;-78
2022/03/08 05:55:32;;;;;;;12.27;10.35;;;;;;;-0.52;64.00;102136.13;5090394;28;20031;-79
2022/03/08 05:58:04;;;;;;;13.70;10.38;;;;;;;-0.49;64.23;102148.84;5106016;28;20028;-80
2022/03/08 06:00:30;;;;;;;11.75;9.85;;;;;;;-0.45;64.10;102158.13;5110563;28;20050;-79
2022/03/08 06:02:58;;;;;;;12.48;9.88;;;;;;;-0.46;64.14;102170.88;5127859;27;20968;-79
2022/03/08 06:05:24;;;;;;;11.93;9.97;;;;;;;-0.44;64.14;102164.06;5095907;28;20027;-79
2022/03/08 06:07:49;;;;;;;12.45;10.10;;;;;;;-0.47;64.23;102176.84;5094697;28;20019;-80
2022/03/08 06:10:14;;;;;;;12.57;10.18;;;;;;;-0.48;64.27;102177.72;5109564;28;20035;-79
2022/03/08 06:12:41;;;;;;;11.85;9.77;;;;;;;-0.50;63.82;102169.25;5109669;28;20400;-81
2022/03/08 06:15:07;;;;;;;12.43;10.48;;;;;;;-0.47;64.17;102179.38;5109938;28;20035;-79
2022/03/08 06:17:33;;;;;;;13.13;10.40;;;;;;;-0.52;63.92;102168.41;5128479;27;20038;-80
2022/03/08 06:19:58;;;;;;;13.43;10.80;;;;;;;-0.50;63.70;102159.06;5104123;27;20028;-79
2022/03/08 06:22:23;;;;;;;12.02;10.23;;;;;;;-0.51;64.10;102163.31;5112397;27;20052;-80
2022/03/08 06:24:49;;;;;;;13.63;10.88;;;;;;;-0.51;64.04;102162.47;5127706;27;20043;-81
2022/03/08 06:27:14;;;;;;;12.90;10.65;;;;;;;-0.48;64.01;102172.59;5130592;27;20487;-80
2022/03/08 06:29:40;;;;;;;11.75;10.07;;;;;;;-0.48;63.99;102172.59;5127293;27;20367;-80
2022/03/08 06:32:06;;;;;;;12.52;10.52;;;;;;;-0.50;63.56;102161.59;5109130;27;20035;-80
2022/03/08 06:34:32;;;;;;;13.82;10.48;;;;;;;-0.42;63.90;102177.63;5103686;28;20358;-80
2022/03/08 06:36:57;;;;;;;12.25;10.55;;;;;;;-0.42;64.23;102167.44;5088516;28;20512;-80
2022/03/08 06:39:22;;;;;;;13.23;10.45;;;;;;;-0.38;64.00;102171.63;5109647;27;20486;-79
2022/03/08 06:41:48;;;;;;;13.68;10.07;;;;;;;-0.40;64.05;102165.69;5103313;27;20123;-80
2022/03/08 06:44:13;;;;;;;12.43;10.27;;;;;;;-0.42;64.18;102152.13;5099733;27;20115;-80
2022/03/08 06:46:41;;;;;;;13.48;11.00;;;;;;;-0.33;64.01;102167.31;5087675;28;20023;-79
2022/03/08 06:49:08;;;;;;;12.27;10.37;;;;;;;-0.37;63.84;102156.28;5091868;28;20024;-80
2022/03/08 06:51:34;;;;;;;13.00;10.27;;;;;;;-0.29;64.42;102158.72;5127877;27;20047;-80
2022/03/08 06:53:59;;;;;;;12.70;10.35;;;;;;;-0.33;64.14;102162.19;5090203;28;20046;-80
2022/03/08 06:56:25;;;;;;;12.57;10.57;;;;;;;-0.30;64.19;102162.16;5090366;28;20024;-80
2022/03/08 06:58:50;;;;;;;11.50;9.93;;;;;;;-0.21;64.17;102167.13;5086904;28;20031;-80
2022/03/08 07:01:15;;;;;;;12.88;10.60;;;;;;;-0.17;63.96;102162.78;5096133;27;20028;-80
2022/03/08 07:03:41;;;;;;;14.43;10.50;;;;;;;-0.21;64.17;102156.91;5086785;28;20098;-80
2022/03/08 07:06:06;;;;;;;12.38;10.60;;;;;;;-0.14;64.50;102173.78;5107523;27;20245;-77
2022/03/08 07:08:31;;;;;;;12.35;10.10;;;;;;;-0.18;63.92;102156.84;5129024;27;20051;-78
2022/03/08 07:10:57;;;;;;;12.35;10.93;;;;;;;-0.09;64.19;102156.72;5127321;27;20030;-79
2022/03/08 07:13:22;;;;;;;12.05;10.68;;;;;;;-0.02;63.95;102173.59;5127659;27;20106;-79
2022/03/08 07:15:48;;;;;;;13.00;10.80;;;;;;;0.03;63.77;102170.97;5129416;27;20023;-78
2022/03/08 07:18:13;;;;;;;12.95;11.00;;;;;;;0.07;63.07;102176.88;5129357;27;20054;-78
2022/03/08 07:20:38;;;;;;;14.02;10.50;;;;;;;0.08;63.66;102163.25;5090680;27;20464;-78
2022/03/08 07:23:04;;;;;;;11.85;10.32;;;;;;;0.12;63.37;102172.56;5088267;28;20098;-78
2022/03/08 07:25:29;;;;;;;12.35;10.35;;;;;;;0.15;62.90;102160.56;5115646;27;20043;-79
2022/03/08 07:27:55;;;;;;;13.20;10.38;;;;;;;0.26;62.86;102178.25;5127897;27;20030;-80
2022/03/08 07:30:20;;;;;;;12.10;10.23;;;;;;;0.28;62.22;102166.31;5128982;27;20054;-78
2022/03/08 07:43:06;;;;;;;13.60;10.00;;;;;;;0.36;61.62;102128.75;5671746;22;20071;-81
2022/03/08 07:45:38;;;;;;;12.32;10.48;;;;;;;0.63;61.47;102159.72;5060301;28;20021;-79
2022/03/08 07:48:15;;;;;;;12.85;9.88;;;;;;;0.62;61.29;102156.31;5060055;28;20116;-79
2022/03/08 08:13:00;;;;;;;13.50;10.52;;;;;;;1.45;59.74;102165.72;4984767;26;20058;-80
2022/03/08 08:15:26;;;;;;;12.38;9.77;;;;;;;1.52;59.37;102156.19;4988885;28;20405;-81
2022/03/08 08:17:51;;;;;;;11.15;9.20;;;;;;;1.62;58.66;102177.28;4992040;28;20093;-82
2022/03/08 08:20:17;;;;;;;12.05;9.70;;;;;;;1.66;58.38;102174.59;4985491;28;20462;-81
2022/03/08 08:22:43;;;;;;;16.00;10.23;;;;;;;1.64;58.15;102160.19;4987085;28;20093;-84
2022/03/08 08:25:10;;;;;;;12.23;9.63;;;;;;;1.81;58.17;102183.66;4971757;28;20470;-81
2022/03/08 08:27:37;;;;;;;11.68;9.43;;;;;;;1.81;58.00;102168.31;4994483;28;20102;-82
2022/03/08 08:30:03;;;;;;;12.25;9.35;;;;;;;1.93;57.19;102168.00;4995168;28;20026;-84
2022/03/08 08:32:29;;;;;;;11.00;9.63;;;;;;;2.01;57.59;102175.50;4987640;28;20030;-81
2022/03/08 08:34:55;;;;;;;12.27;9.65;;;;;;;2.08;57.00;102177.88;4990183;28;20458;-81
2022/03/08 08:37:20;;;;;;;12.85;9.48;;;;;;;2.03;57.36;102174.59;4989926;28;20077;-82
2022/03/08 08:39:45;;;;;;;13.52;9.50;;;;;;;2.11;57.45;102162.44;4991287;28;20033;-85
2022/03/08 08:42:10;;;;;;;11.73;9.07;;;;;;;2.28;57.01;102189.31;4987690;28;20041;-82
2022/03/08 08:44:36;;;;;;;12.30;9.15;;;;;;;2.38;56.91;102186.50;4991360;28;20033;-81
2022/03/08 08:47:02;;;;;;;11.75;9.18;;;;;;;2.44;57.22;102176.97;4989606;28;20034;-81
2022/03/08 08:49:28;;;;;;;10.52;8.93;;;;;;;2.48;56.85;102165.78;4990576;28;20098;-80
2022/03/08 08:51:54;;;;;;;11.35;8.90;;;;;;;2.56;55.62;102169.81;4978263;28;20038;-81
2022/03/08 08:54:19;;;;;;;11.20;9.13;;;;;;;2.69;54.37;102179.72;4970171;28;20469;-83
2022/03/08 08:56:44;;;;;;;13.20;9.35;;;;;;;2.72;55.43;102174.53;4971010;28;20023;-80
2022/03/08 08:59:10;;;;;;;12.57;8.73;;;;;;;2.87;54.93;102174.13;4971406;28;20081;-81
2022/03/08 09:01:36;;;;;;;11.20;8.68;;;;;;;2.95;54.25;102167.06;4971254;28;20027;-80
2022/03/08 09:04:01;;;;;;;12.32;8.95;;;;;;;2.96;54.68;102153.34;4994220;28;20037;-81
2022/03/08 09:06:27;;;;;;;10.82;8.60;;;;;;;3.08;54.65;102157.28;4981723;28;20035;-80
2022/03/08 09:08:54;;;;;;;9.98;8.57;;;;;;;3.16;53.35;102155.34;4990802;28;20026;-81
2022/03/08 09:11:19;;;;;;;10.88;9.07;;;;;;;3.22;53.90;102138.94;4989105;28;20070;-81
2022/03/08 09:13:44;;;;;;;10.95;8.52;;;;;;;3.28;53.33;102133.63;4989788;28;20069;-83
2022/03/08 09:16:10;;;;;;;14.15;8.82;;;;;;;3.44;54.17;102134.81;4989195;28;20014;-81
2022/03/08 09:18:35;;;;;;;10.23;8.45;;;;;;;3.57;54.14;102141.28;4989265;28;20407;-82
2022/03/08 09:21:01;;;;;;;11.90;8.80;;;;;;;3.65;52.92;102128.19;4991229;28;20030;-83
2022/03/08 09:23:27;;;;;;;11.65;8.10;;;;;;;3.76;52.81;102130.41;4983882;28;20049;-81
2022/03/08 09:25:52;;;;;;;10.57;8.90;;;;;;;3.87;52.93;102118.09;4984351;28;20486;-82
2022/03/08 09:28:17;;;;;;;11.15;8.02;;;;;;;3.90;51.02;102123.09;4978201;28;20038;-84
2022/03/08 09:30:44;;;;;;;10.75;7.47;;;;;;;3.96;51.04;102128.06;4970860;28;20058;-80
2022/03/08 09:33:10;;;;;;;10.02;7.75;;;;;;;4.03;51.10;102124.38;4968986;28;20419;-81
2022/03/08 09:35:35;;;;;;;10.63;7.95;;;;;;;4.02;50.92;102117.59;4970615;28;20026;-81
2022/03/08 09:38:02;;;;;;;14.82;7.65;;;;;;;4.09;49.83;102113.91;4969243;28;20386;-81
2022/03/08 09:40:27;;;;;;;10.98;7.43;;;;;;;4.23;49.98;102121.97;4985429;28;20037;-82
2022/03/08 09:42:53;;;;;;;10.07;7.60;;;;;;;4.19;50.78;102102.44;4971067;28;20070;-81
2022/03/08 09:45:18;;;;;;;11.02;7.22;;;;;;;4.40;49.98;102112.84;4985007;28;20057;-80
2022/03/08 09:47:44;;;;;;;8.63;7.22;;;;;;;4.47;49.32;102104.03;4982504;28;20065;-82
2022/03/08 09:50:12;;;;;;;12.02;7.90;;;;;;;4.60;48.93;102105.28;4976100;28;20457;-81
2022/03/08 09:52:39;;;;;;;13.18;7.32;;;;;;;4.62;49.26;102097.50;4988159;28;20482;-82
2022/03/08 09:55:06;;;;;;;9.38;7.20;;;;;;;4.78;48.43;102104.59;4989911;28;20033;-81
2022/03/08 09:57:32;;;;;;;9.18;6.90;;;;;;;4.84;47.66;102095.00;4982367;28;20582;-82
2022/03/08 09:59:57;;;;;;;9.05;6.97;;;;;;;4.89;47.07;102091.34;4970370;28;20058;-82
2022/03/08 10:02:23;;;;;;;9.65;6.95;;;;;;;5.00;46.82;102088.38;4970073;28;20070;-81
2022/03/08 10:05:07;;;;;;;8.82;7.07;;;;;;;5.16;48.59;102098.91;4970946;28;20027;-81
2022/03/08 10:07:32;;;;;;;9.05;7.13;;;;;;;5.24;46.72;102092.56;4985140;28;20026;-81
2022/03/08 10:09:58;;;;;;;9.80;6.60;;;;;;;5.35;46.09;102088.75;4979009;28;20053;-82
2022/03/08 10:12:25;;;;;;;8.40;6.55;;;;;;;5.36;46.60;102080.13;4971859;28;20189;-82
2022/03/08 10:14:51;;;;;;;8.18;6.57;;;;;;;5.45;45.41;102083.19;4976526;28;20030;-81
2022/03/08 10:17:38;;;;;;;10.45;6.57;;;;;;;5.56;47.06;102083.59;4984696;28;20065;-81
2022/03/08 10:20:09;;;;;;;9.30;6.50;;;;;;;5.61;45.02;102080.81;4970573;28;20053;-81
2022/03/08 10:22:40;;;;;;;8.93;6.38;;;;;;;5.69;44.53;102081.34;4981208;28;20106;-81
2022/03/08 10:25:08;;;;;;;7.80;6.10;;;;;;;5.80;45.16;102076.59;4989642;28;20031;-81
2022/03/08 10:27:34;;;;;;;8.35;6.30;;;;;;;5.88;45.21;102072.88;4987717;28;20034;-81
2022/03/08 10:29:59;;;;;;;9.13;6.40;;;;;;;5.91;44.21;102058.16;4989149;28;20073;-81
2022/03/08 10:32:36;;;;;;;8.50;6.22;;;;;;;6.03;44.63;102077.41;4987681;28;20036;-81
2022/03/08 10:35:02;;;;;;;8.40;6.57;;;;;;;6.10;44.40;102078.81;4989068;28;20102;-81
2022/03/08 10:37:39;;;;;;;9.32;6.57;;;;;;;6.16;44.17;102078.56;4987837;28;20061;-81
2022/03/08 10:40:07;;;;;;;7.82;5.93;;;;;;;6.25;43.87;102074.72;4984089;28;20054;-81
2022/03/08 10:42:38;;;;;;;7.50;5.57;;;;;;;6.25;41.97;102062.72;4989022;28;20389;-81
2022/03/08 10:45:08;;;;;;;10.25;5.78;;;;;;;6.37;42.53;102061.34;4988838;28;20080;-81
2022/03/08 10:47:41;;;;;;;8.23;6.00;;;;;;;6.33;42.18;102055.47;4969586;28;20043;-81
2022/03/08 10:50:11;;;;;;;8.38;5.50;;;;;;;6.39;41.17;102060.34;4972746;28;20106;-81
2022/03/08 10:52:39;;;;;;;7.43;5.53;;;;;;;6.36;41.91;102045.00;4998333;28;20054;-81
2022/03/08 10:55:14;;;;;;;9.03;5.23;;;;;;;6.53;41.24;102048.56;4983461;28;20479;-81
2022/03/08 10:57:42;;;;;;;9.10;5.60;;;;;;;6.54;41.23;102037.38;4967984;28;20270;-81
2022/03/08 11:00:12;;;;;;;8.00;5.30;;;;;;;6.54;41.49;102032.22;4970045;28;20019;-81
2022/03/08 11:02:51;;;;;;;7.38;4.88;;;;;;;6.64;41.12;102039.44;4992085;28;20041;-81
2022/03/08 11:05:18;;;;;;;7.50;5.50;;;;;;;6.65;39.61;102030.84;4980569;28;20058;-81
2022/03/08 11:07:43;;;;;;;7.30;5.15;;;;;;;6.72;40.42;102025.41;4984755;28;20610;-81
2022/03/08 11:10:10;;;;;;;7.95;5.65;;;;;;;6.83;41.40;102044.63;4967466;28;20039;-81
2022/03/08 11:12:37;;;;;;;7.70;5.47;;;;;;;6.84;41.23;102024.81;4967615;28;20058;-81
2022/03/08 11:15:04;;;;;;;8.25;5.88;;;;;;;6.91;40.63;102027.03;4968319;28;20053;-81
2022/03/08 11:17:35;;;;;;;8.10;5.45;;;;;;;6.94;39.99;102026.06;4982162;28;20038;-81
2022/03/08 11:20:09;;;;;;;7.70;5.72;;;;;;;6.93;39.76;102014.88;4967816;28;20030;-81
2022/03/08 11:22:35;;;;;;;9.57;5.78;;;;;;;6.98;39.47;102011.25;4967840;28;20035;-81
2022/03/08 11:25:01;;;;;;;7.22;5.53;;;;;;;7.02;39.20;102023.13;4981819;28;20034;-80
2022/03/08 11:27:27;;;;;;;7.13;5.40;;;;;;;7.04;39.27;102021.28;4987245;28;20034;-81
2022/03/08 11:29:53;;;;;;;7.75;5.55;;;;;;;7.09;39.08;102014.16;4973122;28;20406;-81
2022/03/08 11:32:37;;;;;;;8.15;5.50;;;;;;;7.20;39.68;102027.41;4967343;28;20030;-81
2022/03/08 11:35:16;;;;;;;7.95;5.38;;;;;;;7.25;39.68;102022.84;4973548;28;20026;-81
2022/03/08 11:37:47;;;;;;;9.07;6.10;;;;;;;7.30;40.09;102028.63;4965919;28;20027;-81
2022/03/08 11:40:13;;;;;;;9.27;5.88;;;;;;;7.38;39.85;102005.00;4967002;28;20031;-81
2022/03/08 11:42:47;;;;;;;9.20;5.85;;;;;;;7.44;39.43;102012.44;4967701;28;20040;-81
2022/03/08 11:45:17;;;;;;;8.52;5.95;;;;;;;7.51;39.16;102010.41;4985401;28;20074;-81
2022/03/08 11:48:06;;;;;;;9.80;6.07;;;;;;;7.58;40.26;102006.63;4968901;28;20171;-81
2022/03/08 11:50:32;;;;;;;8.32;5.85;;;;;;;7.63;39.37;102010.66;4963399;28;20061;-81
2022/03/08 11:53:06;;;;;;;10.38;6.28;;;;;;;7.69;40.22;102009.50;4967626;28;20053;-80